الصفحة الرئيسية
METAR-TAF:

METAR-TAF

مطار :

باراماريبو, سورينام

دائرة عرض: 05-48-41N, خط طول: 055-11-24W, ارتفاع: 3 متر

مراقبة الطقس الحالي

تاريخ ووقت الإصدار 1ساعة و 8 دقيقة قبل الساعة 23:00UTC
ريح 4 عقدة من الشرق
درجة الحرارة 27°درجة مئوية
الرطوبة 84%
ضغط 1011 hPa
الرؤية 10 كم أو أكثر
غيوم قليلة على ارتفاع 1000 قدم

METAR: SMZO 202300Z 08004KT 9999 FEW010 27/24 Q1011 NOSIG

زمن: 21:08 (00:08 UTC)

توقعات

تاريخ ووقت الإصدار 2ساعات و 8 دقيقة قبل الساعة 22:00UTC
التوقعات صالحة من21 الساعة 00 UTC إلى 21 الساعة 24 UTC
ريح 8 عقدة من الشرق
الرؤية: 8000 متر
غيوم قليلة على ارتفاع 1000 قدم
أصبح
من 21 الساعة 02 UTC إلى 21 الساعة 04 UTC
ريح 2 عقدةمن اتجاهات متغيرة
غيوم قليلة على ارتفاع 800 قدم
من 21 الساعة 1300 UTC
ريح 6 عقدة من الشمال الشرقي
الرؤية 10 كم أو أكثر
غيوم متفرقة على ارتفاع 1500 قدم

TAF: SMZO 202200Z 2100/2124 08008KT 8000 FEW010 TX33/2119Z TN24/2109Z BECMG 2102/2104 VRB02KT FEW008 FM211300 05006KT 9999 SCT015

أرصاد الطقس والتوقعات من أكثر من 4000 مطار (تقارير الطقس للمطار METAR والتنبؤ بالطقس بالمطارTAF).

المحطات المتاحة هي النقط الصفراء والحمراء على الخريطة.

حرك المؤشر فوق النقطة لمعرفة اسم المحطة.

ثم انقر لمعرفة أرصاد وتوقعات الطقس.

لتغيير الخارطة: اضغط على الأزرار الخضراء مع رمز الصليب الأسود للتكبير. على الزر الأخضر مع شرطة للتصغير، أو على الأسهم الخضراء للخرائط المجاورة.


METAR-TAF: